Laneview, Virginia
Current Conditions -  °F | °C
As of 2:55 PM on Sunday 23 Nov 2014 (Local Time) from KXSA Reporting Station
Clear Clear  
Wind Chill: 58°   Ceiling: Unl
Heat Index: 58°   Visibility: 10mi
Dew Point: 42°   Wind: 3mph
Humidity: 57%   Direction: 130°SE
Pressure: 30.12"   Gusts: NA
Location:  37.76°N, 76.72°W
Report Text: KXSA 231955Z AUTO 13003KT 10SM CLR 14/06 A3012 RMK AO2 T01420058
Loading
Personal Weather Stations






























Interactive Weather Map New forecast layout! Learn more

10-Day Weather Forecast

Advertisements
Track Severe Weather on mobile